createdAt,value
2018-08-17T00:01:52.431Z,71.50
2018-08-17T00:04:20.569Z,71.50
2018-08-17T00:06:48.738Z,71.50
2018-08-17T00:09:16.965Z,71.70
2018-08-17T00:11:45.309Z,71.80
2018-08-17T00:14:13.464Z,71.70
2018-08-17T00:16:41.669Z,72.00
2018-08-17T00:19:09.884Z,71.90
2018-08-17T00:21:38.077Z,72.10
2018-08-17T00:24:06.259Z,72.00
2018-08-17T00:26:34.380Z,72.10
2018-08-17T00:29:02.513Z,72.10
2018-08-17T00:31:30.678Z,72.20
2018-08-17T00:33:58.805Z,72.20
2018-08-17T00:36:26.938Z,72.30
2018-08-17T00:38:55.098Z,72.70
2018-08-17T00:41:23.288Z,72.60
2018-08-17T00:43:51.539Z,72.60
2018-08-17T00:46:19.726Z,72.60
2018-08-17T00:48:48.033Z,72.80
2018-08-17T00:51:16.261Z,72.80
2018-08-17T00:53:44.430Z,73.00
2018-08-17T00:56:12.820Z,73.00
2018-08-17T00:58:41.082Z,73.50
2018-08-17T01:01:09.276Z,73.10
2018-08-17T01:03:37.561Z,73.10
2018-08-17T01:06:05.782Z,73.20
2018-08-17T01:08:34.096Z,73.20
2018-08-17T01:11:02.223Z,73.30
2018-08-17T01:13:30.591Z,73.30
2018-08-17T01:15:58.719Z,73.40
2018-08-17T01:18:26.902Z,73.70
2018-08-17T01:20:55.075Z,73.60
2018-08-17T01:23:23.326Z,73.90
2018-08-17T01:25:51.720Z,74.20
2018-08-17T01:28:19.876Z,74.40
2018-08-17T01:30:48.054Z,74.40
2018-08-17T01:33:16.216Z,74.60
2018-08-17T01:35:44.580Z,74.70
2018-08-17T01:38:12.748Z,74.80
2018-08-17T01:40:40.943Z,74.80
2018-08-17T01:43:09.221Z,74.90
2018-08-17T01:45:37.335Z,74.90
2018-08-17T01:48:06.353Z,75.10
2018-08-17T01:50:34.611Z,75.20
2018-08-17T01:53:03.325Z,75.40
2018-08-17T01:55:32.834Z,75.60
2018-08-17T01:58:00.968Z,75.60
2018-08-17T02:00:29.128Z,75.60
2018-08-17T02:02:57.273Z,75.70
2018-08-17T02:05:25.445Z,75.90
2018-08-17T02:07:53.561Z,76.00
2018-08-17T02:10:21.721Z,75.80
2018-08-17T02:12:51.141Z,75.90
2018-08-17T02:15:19.379Z,76.00
2018-08-17T02:17:47.627Z,75.90
2018-08-17T02:20:15.948Z,76.00
2018-08-17T02:22:44.096Z,76.00
2018-08-17T02:25:12.242Z,76.10
2018-08-17T02:27:40.395Z,76.30
2018-08-17T02:30:08.570Z,76.30
2018-08-17T02:32:36.729Z,76.40
2018-08-17T02:35:05.889Z,76.60
2018-08-17T02:37:34.920Z,76.70
2018-08-17T02:40:03.139Z,76.80
2018-08-17T02:42:31.288Z,77.00
2018-08-17T02:44:59.437Z,77.10
2018-08-17T02:47:27.693Z,77.30
2018-08-17T02:49:56.138Z,77.40
2018-08-17T02:52:25.023Z,77.60
2018-08-17T02:54:53.239Z,77.70
2018-08-17T02:57:21.395Z,77.90
2018-08-17T02:59:49.549Z,78.00
2018-08-17T03:02:17.689Z,78.10
2018-08-17T03:04:45.827Z,78.30
2018-08-17T03:07:14.105Z,78.50
2018-08-17T03:09:42.338Z,78.80
2018-08-17T03:12:10.541Z,79.00
2018-08-17T03:14:38.904Z,79.30
2018-08-17T03:17:07.149Z,79.30
2018-08-17T03:19:35.350Z,79.40
2018-08-17T03:22:03.474Z,79.50
2018-08-17T03:24:31.644Z,79.80
2018-08-17T03:26:59.815Z,79.80
2018-08-17T03:29:28.001Z,79.90
2018-08-17T03:31:56.190Z,80.00
2018-08-17T03:34:24.343Z,80.10
2018-08-17T03:36:52.484Z,80.30
2018-08-17T03:39:20.842Z,80.40
2018-08-17T03:41:49.012Z,80.50
2018-08-17T03:44:17.211Z,80.70
2018-08-17T03:46:46.459Z,80.60
2018-08-17T03:49:15.171Z,80.70
2018-08-17T03:51:43.666Z,80.70
2018-08-17T03:54:11.803Z,80.90
2018-08-17T03:56:40.043Z,81.10
2018-08-17T03:59:08.340Z,81.90
2018-08-17T04:01:36.507Z,81.30
2018-08-17T04:04:04.701Z,81.60
2018-08-17T04:06:34.236Z,81.40
2018-08-17T04:09:02.413Z,82.10
2018-08-17T04:11:30.530Z,81.60
2018-08-17T04:13:58.627Z,81.70
2018-08-17T04:16:26.779Z,81.70
2018-08-17T04:18:58.425Z,81.50
2018-08-17T04:21:27.244Z,81.80
2018-08-17T04:23:55.657Z,81.80
2018-08-17T04:26:23.834Z,81.70
2018-08-17T04:28:52.272Z,81.90
2018-08-17T04:31:20.425Z,81.70
2018-08-17T04:33:48.549Z,81.60
2018-08-17T04:36:17.639Z,81.60
2018-08-17T04:38:45.993Z,81.60
2018-08-17T04:41:14.142Z,81.50
2018-08-17T04:43:42.318Z,81.30
2018-08-17T04:46:10.480Z,81.10
2018-08-17T04:48:38.631Z,81.10
2018-08-17T04:51:07.090Z,81.00
2018-08-17T04:53:35.215Z,81.00
2018-08-17T04:56:03.343Z,80.90
2018-08-17T04:58:38.231Z,80.60
2018-08-17T05:01:06.405Z,80.60
2018-08-17T05:03:34.887Z,80.20
2018-08-17T05:06:03.044Z,80.30
2018-08-17T05:08:31.212Z,79.70
2018-08-17T05:10:59.426Z,79.50
2018-08-17T05:13:27.515Z,79.30
2018-08-17T05:15:55.700Z,79.00
2018-08-17T05:18:25.300Z,78.50
2018-08-17T05:20:53.545Z,78.00
2018-08-17T05:23:21.724Z,76.40
2018-08-17T05:25:50.108Z,74.20
2018-08-17T05:28:18.272Z,71.80
2018-08-17T05:30:46.491Z,70.10
2018-08-17T05:33:16.853Z,68.60
2018-08-17T05:35:46.516Z,67.20
2018-08-17T05:40:52.394Z,64.10
2018-08-17T05:43:20.512Z,62.90
2018-08-17T05:45:48.690Z,62.20
2018-08-17T05:48:16.900Z,62.10
2018-08-17T05:50:46.255Z,60.90
2018-08-17T05:53:14.783Z,60.30
2018-08-17T05:55:42.872Z,59.80
2018-08-17T05:58:10.988Z,59.40
2018-08-17T06:00:39.184Z,59.00
2018-08-17T06:03:07.479Z,58.70
2018-08-17T06:05:35.758Z,58.40
2018-08-17T06:08:04.104Z,58.40
2018-08-17T06:10:32.312Z,57.80
2018-08-17T06:13:00.922Z,57.80
2018-08-17T06:15:29.066Z,57.10
2018-08-17T06:17:57.212Z,57.00
2018-08-17T06:20:25.334Z,56.60
2018-08-17T06:22:53.452Z,56.40
2018-08-17T06:25:21.638Z,56.20
2018-08-17T06:27:51.867Z,55.90
2018-08-17T06:30:20.019Z,56.30
2018-08-17T06:32:48.223Z,56.50
2018-08-17T06:35:16.401Z,56.30
2018-08-17T06:37:44.825Z,56.00
2018-08-17T06:40:12.988Z,56.10
2018-08-17T06:42:41.198Z,55.80
2018-08-17T06:45:11.071Z,55.60
2018-08-17T06:47:39.289Z,55.40
2018-08-17T06:50:09.293Z,55.30
2018-08-17T06:52:37.878Z,55.10
2018-08-17T06:55:07.729Z,55.30
2018-08-17T06:57:36.021Z,54.40
2018-08-17T07:00:06.127Z,54.00
2018-08-17T07:02:34.286Z,54.10
2018-08-17T07:05:02.433Z,54.40
2018-08-17T07:07:30.583Z,53.90
2018-08-17T07:09:58.769Z,54.00
2018-08-17T07:12:26.939Z,54.50
2018-08-17T07:14:55.126Z,54.80
2018-08-17T07:17:23.506Z,54.20
2018-08-17T07:19:51.919Z,54.50
2018-08-17T07:22:20.091Z,54.50
2018-08-17T07:24:48.302Z,54.40
2018-08-17T07:27:16.507Z,54.00
2018-08-17T07:29:44.707Z,54.20
2018-08-17T07:32:12.884Z,54.50
2018-08-17T07:34:41.273Z,53.90
2018-08-17T07:37:09.960Z,53.90
2018-08-17T07:39:38.354Z,53.90
2018-08-17T07:42:06.517Z,53.60
2018-08-17T07:44:35.104Z,53.80
2018-08-17T07:47:03.405Z,53.40
2018-08-17T07:49:31.907Z,53.20
2018-08-17T07:52:00.059Z,51.50
2018-08-17T07:54:28.259Z,51.70
2018-08-17T07:56:56.546Z,51.10
2018-08-17T07:59:24.776Z,50.90
2018-08-17T08:01:52.958Z,50.90
2018-08-17T08:04:21.114Z,49.60
2018-08-17T08:06:49.282Z,49.70
2018-08-17T08:09:17.482Z,50.30
2018-08-17T08:11:46.693Z,51.50
2018-08-17T08:14:14.852Z,52.50
2018-08-17T08:16:43.012Z,52.30
2018-08-17T08:19:15.825Z,52.60
2018-08-17T08:21:46.004Z,52.00
2018-08-17T08:24:14.168Z,52.00
2018-08-17T08:26:42.333Z,52.50
2018-08-17T08:29:11.148Z,52.50
2018-08-17T08:31:39.359Z,52.80
2018-08-17T08:34:07.508Z,52.50
2018-08-17T08:36:35.667Z,52.60
2018-08-17T08:39:06.158Z,52.50
2018-08-17T08:41:34.290Z,52.90
2018-08-17T08:44:02.506Z,52.40
2018-08-17T08:46:30.810Z,52.20
2018-08-17T08:48:58.957Z,51.70
2018-08-17T08:51:27.119Z,51.60
2018-08-17T08:53:55.366Z,51.00
2018-08-17T08:56:23.574Z,50.10
2018-08-17T08:58:53.417Z,50.20
2018-08-17T09:01:21.533Z,49.90
2018-08-17T09:03:49.709Z,49.40
2018-08-17T09:06:17.925Z,49.10
2018-08-17T09:08:46.020Z,49.00
2018-08-17T09:11:14.167Z,49.40
2018-08-17T09:13:42.468Z,49.20
2018-08-17T09:16:10.661Z,48.90
2018-08-17T09:18:38.766Z,48.30
2018-08-17T09:21:07.295Z,48.20
2018-08-17T09:23:35.427Z,48.50
2018-08-17T09:26:03.581Z,48.70
2018-08-17T09:28:31.825Z,48.80
2018-08-17T09:30:59.982Z,48.10
2018-08-17T09:33:28.289Z,48.50
2018-08-17T09:35:56.585Z,48.40
2018-08-17T09:38:25.642Z,48.30
2018-08-17T09:40:53.795Z,48.60
2018-08-17T09:43:21.918Z,48.30
2018-08-17T09:45:50.139Z,48.00
2018-08-17T09:48:18.296Z,47.90
2018-08-17T09:50:46.531Z,47.90
2018-08-17T09:53:14.780Z,47.40
2018-08-17T09:55:43.207Z,46.90
2018-08-17T09:58:11.313Z,47.00
2018-08-17T10:00:44.731Z,47.30
2018-08-17T10:03:18.581Z,46.80
2018-08-17T10:05:46.848Z,46.90
2018-08-17T10:08:21.769Z,46.40
2018-08-17T10:10:49.948Z,46.50
2018-08-17T10:13:18.231Z,46.30
2018-08-17T10:15:46.479Z,46.30
2018-08-17T10:18:14.584Z,46.00
2018-08-17T10:20:42.849Z,45.60
2018-08-17T10:23:16.206Z,45.30
2018-08-17T10:25:44.465Z,45.30
2018-08-17T10:28:12.658Z,45.50
2018-08-17T10:30:41.051Z,44.40
2018-08-17T10:33:09.709Z,44.10
2018-08-17T10:35:37.841Z,44.10
2018-08-17T10:38:07.024Z,43.70
2018-08-17T10:40:35.324Z,43.50
2018-08-17T10:43:04.797Z,42.80
2018-08-17T10:45:33.396Z,42.70
2018-08-17T10:48:01.595Z,42.30
2018-08-17T10:50:32.325Z,41.70
2018-08-17T10:53:02.638Z,41.50
2018-08-17T10:55:38.295Z,41.30
2018-08-17T10:58:07.081Z,41.00
2018-08-17T11:00:35.459Z,41.50
2018-08-17T11:03:03.675Z,41.40
2018-08-17T11:05:31.843Z,41.80
2018-08-17T11:08:00.027Z,41.50
2018-08-17T11:10:28.223Z,41.00
2018-08-17T11:12:56.449Z,41.00
2018-08-17T11:15:24.620Z,41.30
2018-08-17T11:17:52.784Z,40.20
2018-08-17T11:20:21.674Z,40.10
2018-08-17T11:22:49.867Z,39.80
2018-08-17T11:25:18.025Z,40.20
2018-08-17T11:27:46.713Z,39.80
2018-08-17T11:30:15.339Z,39.40
2018-08-17T11:32:44.072Z,39.40
2018-08-17T11:35:12.226Z,39.20
2018-08-17T11:37:40.359Z,38.80
2018-08-17T11:40:09.676Z,38.70
2018-08-17T11:42:42.026Z,38.50
2018-08-17T11:45:14.395Z,38.10
2018-08-17T11:47:44.133Z,38.10
2018-08-17T11:50:16.833Z,38.00
2018-08-17T11:52:50.527Z,38.40
2018-08-17T11:55:19.756Z,38.10
2018-08-17T11:57:48.754Z,38.40
2018-08-17T12:00:17.971Z,37.90
2018-08-17T12:02:46.267Z,37.80
2018-08-17T12:05:14.439Z,37.40
2018-08-17T12:07:43.498Z,37.50
2018-08-17T12:10:11.681Z,37.70
2018-08-17T12:12:40.996Z,37.80
2018-08-17T12:15:10.270Z,37.80
2018-08-17T12:17:38.762Z,37.80
2018-08-17T12:20:07.054Z,37.70
2018-08-17T12:22:35.274Z,37.40
2018-08-17T12:25:03.463Z,37.70
2018-08-17T12:27:31.931Z,36.90
2018-08-17T12:30:00.177Z,36.80
2018-08-17T12:32:28.439Z,36.70
2018-08-17T12:34:56.607Z,36.70
2018-08-17T12:37:24.855Z,36.70
2018-08-17T12:39:53.057Z,35.80
2018-08-17T12:42:21.454Z,35.40
2018-08-17T12:44:49.563Z,36.20
2018-08-17T12:47:17.721Z,35.60
2018-08-17T12:49:45.857Z,35.80
2018-08-17T12:52:14.065Z,35.40
2018-08-17T12:54:42.288Z,35.30
2018-08-17T12:57:10.421Z,35.70
2018-08-17T12:59:38.596Z,36.00
2018-08-17T13:02:06.835Z,35.90
2018-08-17T13:04:34.983Z,36.10
2018-08-17T13:07:04.230Z,36.40
2018-08-17T13:09:32.387Z,36.40
2018-08-17T13:12:01.684Z,36.20
2018-08-17T13:14:30.299Z,36.20
2018-08-17T13:16:59.777Z,36.30
2018-08-17T13:19:28.055Z,36.50
2018-08-17T13:21:56.308Z,36.70
2018-08-17T13:24:24.429Z,37.00
2018-08-17T13:26:52.533Z,37.30
2018-08-17T13:29:20.703Z,37.00
2018-08-17T13:31:48.828Z,37.60
2018-08-17T13:34:17.152Z,36.70
2018-08-17T13:36:45.415Z,36.80
2018-08-17T13:39:13.640Z,36.80
2018-08-17T13:41:41.824Z,36.20
2018-08-17T13:44:11.615Z,36.20
2018-08-17T13:46:39.962Z,36.70
2018-08-17T13:49:08.441Z,36.40
2018-08-17T13:51:36.574Z,36.00
2018-08-17T13:54:05.107Z,36.30
2018-08-17T13:56:33.370Z,35.90
2018-08-17T13:59:01.672Z,36.30
2018-08-17T14:01:30.062Z,36.20
2018-08-17T14:03:58.276Z,36.30
2018-08-17T14:06:26.482Z,36.70
2018-08-17T14:08:54.616Z,37.10
2018-08-17T14:11:22.799Z,36.00
2018-08-17T14:13:51.045Z,35.80
2018-08-17T14:16:19.204Z,35.70
2018-08-17T14:18:47.355Z,35.70
2018-08-17T14:21:15.793Z,35.40
2018-08-17T14:23:43.965Z,35.80
2018-08-17T14:26:12.125Z,36.20
2018-08-17T14:28:40.463Z,36.60
2018-08-17T14:31:10.108Z,36.20
2018-08-17T14:33:38.278Z,36.40
2018-08-17T14:36:06.716Z,36.00
2018-08-17T14:38:36.634Z,36.10
2018-08-17T14:41:05.625Z,36.50
2018-08-17T14:43:34.206Z,35.80
2018-08-17T14:46:02.381Z,36.20
2018-08-17T14:48:30.629Z,36.50
2018-08-17T14:50:58.766Z,36.80
2018-08-17T14:53:27.389Z,37.10
2018-08-17T14:55:55.511Z,37.70
2018-08-17T14:58:23.791Z,37.50
2018-08-17T15:00:52.043Z,37.40
2018-08-17T15:03:20.215Z,36.80
2018-08-17T15:05:48.457Z,36.80
2018-08-17T15:08:16.577Z,37.20
2018-08-17T15:10:44.777Z,37.60
2018-08-17T15:13:14.131Z,38.00
2018-08-17T15:15:42.268Z,39.40
2018-08-17T15:18:10.680Z,40.00
2018-08-17T15:20:38.933Z,40.10
2018-08-17T15:23:07.975Z,39.90
2018-08-17T15:25:36.532Z,39.90
2018-08-17T15:28:04.678Z,40.30
2018-08-17T15:30:32.852Z,40.00
2018-08-17T15:33:01.097Z,40.10
2018-08-17T15:35:29.363Z,40.70
2018-08-17T15:37:57.549Z,40.30
2018-08-17T15:40:25.723Z,40.70
2018-08-17T15:42:58.139Z,40.70
2018-08-17T15:45:26.345Z,41.10
2018-08-17T15:47:54.501Z,41.50
2018-08-17T15:50:22.718Z,41.90
2018-08-17T15:52:50.912Z,42.30
2018-08-17T15:55:19.195Z,42.20
2018-08-17T15:57:47.543Z,42.20
2018-08-17T16:00:18.241Z,42.60
2018-08-17T16:02:46.429Z,42.70
2018-08-17T16:05:14.627Z,42.90
2018-08-17T16:07:42.916Z,42.80
2018-08-17T16:10:13.384Z,42.90
2018-08-17T16:12:41.549Z,42.60
2018-08-17T16:15:10.252Z,42.00
2018-08-17T16:17:38.911Z,41.60
2018-08-17T16:20:08.528Z,41.50
2018-08-17T16:22:37.408Z,41.80
2018-08-17T16:25:06.369Z,42.40
2018-08-17T16:27:34.620Z,42.90
2018-08-17T16:30:02.944Z,43.30
2018-08-17T16:32:31.092Z,43.50
2018-08-17T16:35:00.466Z,43.70
2018-08-17T16:37:28.764Z,43.90
2018-08-17T16:39:56.867Z,44.30
2018-08-17T16:42:31.220Z,44.40
2018-08-17T16:44:59.705Z,44.70
2018-08-17T16:47:27.880Z,45.00
2018-08-17T16:49:56.487Z,45.40
2018-08-17T16:52:24.975Z,45.80
2018-08-17T16:54:53.355Z,46.10
2018-08-17T16:57:21.529Z,46.50
2018-08-17T16:59:49.776Z,46.80
2018-08-17T17:02:18.095Z,47.30
2018-08-17T17:04:46.255Z,48.90
2018-08-17T17:07:14.474Z,50.00
2018-08-17T17:09:42.750Z,50.50
2018-08-17T17:12:15.451Z,50.90
2018-08-17T17:14:44.290Z,51.30
2018-08-17T17:17:12.491Z,51.70
2018-08-17T17:19:40.669Z,52.10
2018-08-17T17:22:09.411Z,52.40
2018-08-17T17:24:37.518Z,52.60
2018-08-17T17:27:06.494Z,53.10
2018-08-17T17:29:35.842Z,53.70
2018-08-17T17:32:05.181Z,54.10
2018-08-17T17:34:33.442Z,55.00
2018-08-17T17:37:01.672Z,55.80
2018-08-17T17:39:29.844Z,56.40
2018-08-17T17:41:58.053Z,57.10
2018-08-17T17:44:26.299Z,57.70
2018-08-17T17:46:54.493Z,58.10
2018-08-17T17:49:22.703Z,58.60
2018-08-17T17:51:51.803Z,59.00
2018-08-17T17:54:23.554Z,59.50
2018-08-17T17:57:01.822Z,59.80
2018-08-17T17:59:30.254Z,60.20
2018-08-17T18:01:58.473Z,60.30
2018-08-17T18:04:30.593Z,60.50
2018-08-17T18:06:59.342Z,60.70
2018-08-17T18:09:28.713Z,60.90
2018-08-17T18:11:56.877Z,61.00
2018-08-17T18:14:25.048Z,61.30
2018-08-17T18:16:53.190Z,61.50
2018-08-17T18:19:21.324Z,61.70
2018-08-17T18:21:49.546Z,61.40
2018-08-17T18:24:17.716Z,62.20
2018-08-17T18:26:46.806Z,62.30
2018-08-17T18:29:16.784Z,62.00
2018-08-17T18:31:45.934Z,62.30
2018-08-17T18:34:14.476Z,62.40
2018-08-17T18:36:42.723Z,62.50
2018-08-17T18:39:12.720Z,62.60
2018-08-17T18:41:41.184Z,62.80
2018-08-17T18:44:09.451Z,63.00
2018-08-17T18:46:37.873Z,63.30
2018-08-17T18:49:06.212Z,63.10
2018-08-17T18:51:35.506Z,63.10
2018-08-17T18:54:04.095Z,63.40
2018-08-17T18:56:32.265Z,63.30
2018-08-17T18:59:00.482Z,63.60
2018-08-17T19:01:30.585Z,63.90
2018-08-17T19:03:58.730Z,64.00
2018-08-17T19:06:26.841Z,64.20
2018-08-17T19:08:55.464Z,64.40
2018-08-17T19:11:23.589Z,64.30
2018-08-17T19:13:51.732Z,64.20
2018-08-17T19:16:19.907Z,64.40
2018-08-17T19:18:48.083Z,64.80
2018-08-17T19:21:16.271Z,65.10
2018-08-17T19:23:44.698Z,65.20
2018-08-17T19:26:12.847Z,65.50
2018-08-17T19:28:41.056Z,65.40
2018-08-17T19:31:09.357Z,65.80
2018-08-17T19:33:39.104Z,66.20
2018-08-17T19:36:07.321Z,66.60
2018-08-17T19:38:37.816Z,67.30
2018-08-17T19:41:06.011Z,67.30
2018-08-17T19:43:34.156Z,68.20
2018-08-17T19:46:02.410Z,67.60
2018-08-17T19:48:30.506Z,67.70
2018-08-17T19:50:59.642Z,67.40
2018-08-17T19:53:28.112Z,67.50
2018-08-17T19:55:56.309Z,67.80
2018-08-17T19:58:24.594Z,68.10
2018-08-17T20:00:52.695Z,68.30
2018-08-17T20:03:22.173Z,68.20
2018-08-17T20:05:50.375Z,68.50
2018-08-17T20:08:18.535Z,68.40
2018-08-17T20:10:46.732Z,68.30
2018-08-17T20:13:15.940Z,68.50
2018-08-17T20:15:44.106Z,68.50
2018-08-17T20:18:12.297Z,68.80
2018-08-17T20:20:40.545Z,69.10
2018-08-17T20:23:08.792Z,69.50
2018-08-17T20:25:37.128Z,69.90
2018-08-17T20:28:05.277Z,69.90
2018-08-17T20:30:33.557Z,70.20
2018-08-17T20:33:01.719Z,70.50
2018-08-17T20:35:29.884Z,70.70
2018-08-17T20:37:58.149Z,70.90
2018-08-17T20:40:26.362Z,70.70
2018-08-17T20:42:54.567Z,70.70
2018-08-17T20:45:25.833Z,70.60
2018-08-17T20:47:54.178Z,70.80
2018-08-17T20:50:22.318Z,69.90
2018-08-17T20:52:57.959Z,69.30
2018-08-17T20:55:26.153Z,68.80
2018-08-17T20:57:55.468Z,68.60
2018-08-17T21:00:25.448Z,68.70
2018-08-17T21:02:53.707Z,68.60
2018-08-17T21:05:22.168Z,68.70
2018-08-17T21:07:50.594Z,69.00
2018-08-17T21:10:19.106Z,69.20
2018-08-17T21:12:47.876Z,69.60
2018-08-17T21:15:16.604Z,69.60
2018-08-17T21:17:45.138Z,70.00
2018-08-17T21:20:14.361Z,70.40
2018-08-17T21:22:42.575Z,70.80
2018-08-17T21:25:10.885Z,70.80
2018-08-17T21:27:39.130Z,71.10
2018-08-17T21:30:08.189Z,71.40
2018-08-17T21:32:36.824Z,71.80
2018-08-17T21:35:05.602Z,72.00
2018-08-17T21:37:33.727Z,72.50
2018-08-17T21:40:01.906Z,72.90
2018-08-17T21:42:30.126Z,73.50
2018-08-17T21:45:01.428Z,73.70
2018-08-17T21:47:31.476Z,74.20
2018-08-17T21:50:05.166Z,75.10
2018-08-17T21:52:33.280Z,75.70
2018-08-17T21:55:01.533Z,76.20
2018-08-17T21:57:29.661Z,76.70
2018-08-17T21:59:57.810Z,77.30
2018-08-17T22:02:26.146Z,77.60
2018-08-17T22:04:54.320Z,78.10
2018-08-17T22:07:23.553Z,78.60
2018-08-17T22:09:52.762Z,78.90
2018-08-17T22:12:21.396Z,79.10
2018-08-17T22:14:49.930Z,79.30
2018-08-17T22:17:30.612Z,79.70
2018-08-17T22:19:58.793Z,79.80
2018-08-17T22:22:26.931Z,80.30
2018-08-17T22:24:56.895Z,80.50
2018-08-17T22:27:25.887Z,81.10
2018-08-17T22:29:55.349Z,80.70
2018-08-17T22:32:23.986Z,80.70
2018-08-17T22:34:52.358Z,81.00
2018-08-17T22:37:20.466Z,81.30
2018-08-17T22:39:48.760Z,81.40
2018-08-17T22:42:17.813Z,81.70
2018-08-17T22:44:47.391Z,82.00
2018-08-17T22:47:21.551Z,82.20
2018-08-17T22:49:50.664Z,83.30
2018-08-17T22:52:18.917Z,82.80
2018-08-17T22:54:52.930Z,83.10
2018-08-17T22:57:21.341Z,83.40
2018-08-17T23:00:16.961Z,83.40
2018-08-17T23:02:45.998Z,83.70
2018-08-17T23:05:16.076Z,83.90
2018-08-17T23:07:44.244Z,84.10
2018-08-17T23:10:16.388Z,84.30
2018-08-17T23:12:45.596Z,84.50
2018-08-17T23:15:14.062Z,84.60
2018-08-17T23:17:45.712Z,84.80
2018-08-17T23:20:14.072Z,85.10
2018-08-17T23:22:45.809Z,85.30
2018-08-17T23:25:14.230Z,85.50
2018-08-17T23:27:42.522Z,85.90
2018-08-17T23:30:11.592Z,86.20
2018-08-17T23:32:39.759Z,86.40
2018-08-17T23:35:09.512Z,86.70
2018-08-17T23:37:38.198Z,86.80
2018-08-17T23:40:07.932Z,87.10
2018-08-17T23:42:37.688Z,87.50
2018-08-17T23:45:07.400Z,87.50
2018-08-17T23:47:35.740Z,87.70
2018-08-17T23:50:04.540Z,87.70
2018-08-17T23:52:32.842Z,87.80
2018-08-17T23:55:01.005Z,87.90
2018-08-17T23:57:29.178Z,87.90
